Time;durP1;ratioP1;P1;durP2;ratioP2;P2;SDS_P1;SDS_P2;PMS_P1;PMS_P2;Temp;Humidity;BMP_temperature;BMP_pressure;BME280_temperature;BME280_humidity;BME280_pressure;Samples;Min_cycle;Max_cycle;Signal;HPM_P1;HPM_P2
2021/03/26 00:00:49;;;;;;;18.15;10.75;;;;;;;0.88;64.59;100702.41;5090293;28;20173;-22
2021/03/26 00:03:15;;;;;;;;;;;;;;;0.37;66.75;100699.94;5090157;28;20056;-24
2021/03/26 00:05:41;;;;;;;19.27;12.00;;;;;;;0.15;67.19;100668.72;5090213;28;20132;-22
2021/03/26 00:08:06;;;;;;;19.33;10.75;;;;;;;0.68;65.81;100699.81;5090093;28;20095;-22
2021/03/26 00:10:32;;;;;;;20.25;12.27;;;;;;;0.72;65.97;100698.56;5089855;28;20484;-23
2021/03/26 00:12:57;;;;;;;23.30;11.68;;;;;;;0.79;66.48;100690.94;5090026;28;20043;-23
2021/03/26 00:15:23;;;;;;;31.05;15.63;;;;;;;0.94;64.62;100680.81;5089761;28;20513;-22
2021/03/26 00:17:49;;;;;;;24.00;13.40;;;;;;;0.78;65.55;100682.25;5089820;28;20035;-22
2021/03/26 00:20:14;;;;;;;21.75;13.15;;;;;;;0.70;65.78;100684.75;5089707;28;20468;-23
2021/03/26 00:22:40;;;;;;;21.88;14.43;;;;;;;0.82;66.12;100676.69;5089934;28;20024;-22
2021/03/26 00:25:07;;;;;;;22.70;14.70;;;;;;;0.89;65.48;100683.06;5071439;28;20104;-22
2021/03/26 00:27:32;;;;;;;22.52;14.48;;;;;;;0.85;66.50;100692.19;5089466;28;20020;-22
2021/03/26 00:29:58;;;;;;;27.63;15.52;;;;;;;0.61;66.29;100688.19;5090040;28;20039;-22
2021/03/26 00:32:23;;;;;;;26.92;14.57;;;;;;;0.78;66.88;100692.75;5089780;28;20032;-22
2021/03/26 00:34:50;;;;;;;22.83;14.02;;;;;;;0.76;66.30;100699.94;5089552;28;20032;-23
2021/03/26 00:37:17;;;;;;;23.77;13.85;;;;;;;0.72;66.74;100688.06;5089134;28;20035;-22
2021/03/26 00:39:43;;;;;;;28.42;15.82;;;;;;;1.16;65.08;100691.00;5071318;28;20028;-23
2021/03/26 00:42:08;;;;;;;22.98;13.07;;;;;;;0.87;66.61;100695.50;5089451;28;20035;-23
2021/03/26 00:44:34;;;;;;;21.52;13.55;;;;;;;0.76;66.64;100686.81;5089383;28;20036;-23
2021/03/26 00:47:00;;;;;;;22.77;13.32;;;;;;;0.78;67.45;100694.56;5089161;28;20028;-22
2021/03/26 00:49:25;;;;;;;25.10;14.35;;;;;;;0.75;66.69;100692.19;5089097;28;20089;-22
2021/03/26 00:51:51;;;;;;;23.95;12.93;;;;;;;0.75;66.23;100679.88;5071136;28;20047;-22
2021/03/26 00:54:17;;;;;;;23.33;13.13;;;;;;;0.56;68.49;100690.41;5087757;28;20075;-23
2021/03/26 00:56:44;;;;;;;21.73;13.07;;;;;;;0.12;69.49;100668.97;5089144;28;20484;-23
2021/03/26 00:59:10;;;;;;;21.75;13.35;;;;;;;0.35;68.30;100659.91;5089116;28;20038;-22
2021/03/26 01:01:35;;;;;;;21.45;13.35;;;;;;;0.78;67.46;100692.75;5088824;28;20036;-23
2021/03/26 01:04:01;;;;;;;23.70;12.38;;;;;;;0.69;67.04;100682.25;5088796;28;20048;-22
2021/03/26 01:06:26;;;;;;;20.08;11.80;;;;;;;0.45;68.26;100685.28;5070911;28;20108;-22
2021/03/26 01:08:52;;;;;;;21.10;12.77;;;;;;;0.04;68.97;100682.78;5088786;28;20114;-22
2021/03/26 01:11:20;;;;;;;28.35;13.32;;;;;;;0.00;69.04;100681.41;5087407;28;20476;-22
2021/03/26 01:13:46;;;;;;;21.55;12.63;;;;;;;-0.10;68.90;100686.63;5070850;28;20051;-22
2021/03/26 01:16:13;;;;;;;24.13;12.52;;;;;;;0.04;68.81;100697.66;5088651;28;20411;-22
2021/03/26 01:18:41;;;;;;;28.42;16.02;;;;;;;-0.11;68.85;100684.94;5070904;28;20039;-22
2021/03/26 01:21:07;;;;;;;30.13;15.45;;;;;;;-0.35;69.42;100676.59;5088745;28;20034;-22
2021/03/26 01:23:32;;;;;;;23.92;13.73;;;;;;;-0.21;69.61;100689.31;5088585;28;20028;-22
2021/03/26 01:25:58;;;;;;;26.70;14.38;;;;;;;0.01;68.96;100693.53;5088887;28;20026;-22
2021/03/26 01:28:25;;;;;;;22.08;13.75;;;;;;;0.28;67.06;100673.69;5088829;28;20036;-22
2021/03/26 01:30:51;;;;;;;23.17;13.70;;;;;;;0.39;66.91;100692.75;5088816;28;20024;-22
2021/03/26 01:33:17;;;;;;;28.55;14.65;;;;;;;0.20;67.85;100679.63;5088291;28;20039;-22
2021/03/26 01:35:43;;;;;;;26.73;15.45;;;;;;;0.31;66.45;100674.25;5088089;28;20027;-23
2021/03/26 01:38:08;;;;;;;33.28;17.50;;;;;;;0.40;66.63;100681.28;5070374;28;20036;-23
2021/03/26 01:40:45;;;;;;;29.90;15.00;;;;;;;0.66;64.89;100678.13;5088350;28;20058;-22
2021/03/26 01:43:14;;;;;;;19.85;12.43;;;;;;;0.49;66.38;100699.78;5088049;28;20031;-21
2021/03/26 01:45:40;;;;;;;23.92;12.68;;;;;;;-0.02;68.56;100693.78;5088146;28;20021;-22
2021/03/26 01:48:07;;;;;;;21.67;13.63;;;;;;;0.36;67.07;100708.75;5088195;28;20024;-22
2021/03/26 01:50:32;;;;;;;28.42;16.00;;;;;;;0.28;67.63;100700.75;5069770;28;20412;-22
2021/03/26 01:52:58;;;;;;;36.50;18.98;;;;;;;0.07;66.95;100676.44;5070049;28;20404;-22
2021/03/26 01:55:31;;;;;;;31.05;16.83;;;;;;;0.27;67.15;100701.72;5087710;28;20547;-21
2021/03/26 01:57:56;;;;;;;24.58;14.30;;;;;;;0.32;66.79;100706.56;5070073;28;20028;-22
2021/03/26 02:00:27;;;;;;;28.27;16.33;;;;;;;0.29;67.66;100706.84;5087932;28;20120;-23
2021/03/26 02:02:52;;;;;;;25.33;15.15;;;;;;;0.41;67.26;100705.75;5069795;28;20058;-22
2021/03/26 02:05:22;;;;;;;25.02;13.30;;;;;;;0.04;66.92;100723.91;5069199;28;20111;-22
2021/03/26 02:07:48;;;;;;;28.20;14.15;;;;;;;-0.15;66.96;100714.19;5053408;28;20032;-23
2021/03/26 02:10:13;;;;;;;26.27;15.90;;;;;;;-0.27;68.75;100722.13;5087693;28;20545;-22
2021/03/26 02:12:39;;;;;;;30.30;18.40;;;;;;;0.03;68.42;100724.88;5088012;28;20178;-23
2021/03/26 02:15:12;;;;;;;24.48;14.63;;;;;;;-0.22;68.71;100725.22;5069713;28;20509;-22
2021/03/26 02:17:39;;;;;;;24.58;14.85;;;;;;;-0.11;68.71;100716.41;5087630;28;20035;-22
2021/03/26 02:20:17;;;;;;;24.45;12.13;;;;;;;-0.30;68.61;100704.06;5087610;28;20059;-23
2021/03/26 02:22:43;;;;;;;23.58;12.23;;;;;;;-0.23;69.60;100722.72;5087429;28;20043;-22
2021/03/26 02:25:11;;;;;;;29.17;14.02;;;;;;;-0.55;69.25;100696.66;5052805;28;20028;-22
2021/03/26 02:27:37;;;;;;;26.92;14.38;;;;;;;-0.43;68.27;100696.44;5087628;28;20032;-22
2021/03/26 02:30:16;;;;;;;30.77;14.43;;;;;;;-0.50;69.26;100695.28;5087427;28;20024;-21
2021/03/26 02:32:41;;;;;;;26.17;14.40;;;;;;;-0.10;68.18;100711.97;5069386;28;20081;-22
2021/03/26 02:35:26;;;;;;;22.25;12.60;;;;;;;0.00;68.16;100723.34;5087391;28;20042;-22
2021/03/26 02:37:58;;;;;;;37.45;21.88;;;;;;;-0.04;67.07;100706.19;5087669;28;20051;-22
2021/03/26 02:40:37;;;;;;;23.20;13.23;;;;;;;0.14;67.29;100735.22;5069116;28;20445;-23
2021/03/26 02:43:14;;;;;;;;;;;;;;;-0.14;68.11;100735.03;5070268;28;20035;-22
2021/03/26 02:45:42;;;;;;;23.80;12.73;;;;;;;-0.38;68.77;100734.53;5069112;28;20383;-23
2021/03/26 02:48:27;;;;;;;28.67;13.52;;;;;;;-0.17;69.53;100737.09;5053291;28;20354;-22
2021/03/26 02:51:07;;;;;;;26.90;16.50;;;;;;;0.08;67.35;100731.38;5053999;28;20036;-23
2021/03/26 02:53:48;;;;;;;28.73;16.92;;;;;;;0.05;67.36;100722.94;5087101;28;20085;-22
2021/03/26 02:56:45;;;;;;;25.15;15.90;;;;;;;0.14;67.29;100746.59;5070147;28;20513;-23
2021/03/26 02:59:27;;;;;;;18.10;10.82;;;;;;;-0.04;67.34;100748.16;5074278;28;20047;-21
2021/03/26 03:01:52;;;;;;;19.63;12.05;;;;;;;-0.37;68.73;100733.56;5087289;28;20089;-21
2021/03/26 03:04:24;;;;;;;19.48;12.38;;;;;;;-0.14;68.05;100763.88;5069425;28;20031;-23
2021/03/26 03:07:08;;;;;;;44.17;23.83;;;;;;;0.03;67.69;100753.72;5068876;28;20032;-22
2021/03/26 03:09:35;;;;;;;20.55;14.00;;;;;;;-0.05;67.11;100747.34;5053927;28;20455;-22
2021/03/26 03:12:07;;;;;;;27.67;15.70;;;;;;;-0.02;67.47;100752.31;5052762;28;20047;-22
2021/03/26 03:14:41;;;;;;;19.77;12.05;;;;;;;-0.36;68.55;100758.81;5052275;28;20028;-23
2021/03/26 03:17:17;;;;;;;25.45;13.27;;;;;;;-0.46;69.24;100759.56;5054472;28;20028;-23
2021/03/26 03:20:05;;;;;;;55.17;27.20;;;;;;;-0.19;68.21;100758.19;5057439;28;20132;-22
2021/03/26 03:22:38;;;;;;;25.15;13.48;;;;;;;-0.32;67.96;100755.78;5073309;28;20767;-21
2021/03/26 03:25:16;;;;;;;20.80;12.73;;;;;;;-0.73;69.11;100730.50;5072827;28;20043;-22
2021/03/26 03:27:46;;;;;;;30.20;14.85;;;;;;;-0.62;69.14;100754.81;5056435;28;20089;-22
2021/03/26 03:30:20;;;;;;;25.33;12.25;;;;;;;-0.34;68.06;100756.88;5073120;28;20891;-22
2021/03/26 03:32:59;;;;;;;30.05;15.73;;;;;;;-0.62;68.05;100743.50;5091064;28;20495;-22
2021/03/26 03:35:49;;;;;;;20.45;11.77;;;;;;;-0.27;67.31;100773.75;5089310;28;20020;-23
2021/03/26 03:38:44;;;;;;;19.15;10.45;;;;;;;-0.85;69.19;100761.97;5073180;28;20743;-23
2021/03/26 03:41:35;;;;;;;18.48;10.85;;;;;;;-0.50;66.62;100773.91;5075841;28;20127;-22
2021/03/26 03:44:13;;;;;;;77.28;39.67;;;;;;;-0.23;65.85;100780.38;5072390;28;20047;-22
2021/03/26 03:46:51;;;;;;;74.15;39.38;;;;;;;-0.23;65.93;100780.38;5072610;28;20799;-23
2021/03/26 03:49:36;;;;;;;103.13;50.92;;;;;;;-0.66;66.67;100752.56;5072218;28;20632;-22
2021/03/26 03:52:21;;;;;;;96.38;54.95;;;;;;;-0.47;66.63;100768.41;5058081;28;20115;-22
2021/03/26 03:54:50;;;;;;;81.20;48.65;;;;;;;-0.61;67.76;100793.16;5074958;28;20472;-24
2021/03/26 03:57:16;;;;;;;;;;;;;;;-0.46;66.56;100791.03;5090608;28;20082;-23
2021/03/26 04:00:04;;;;;;;25.17;14.50;;;;;;;-0.47;66.96;100797.25;5072180;28;20029;-22
2021/03/26 04:02:40;;;;;;;20.50;9.88;;;;;;;-0.39;65.86;100774.78;5090087;28;20080;-22
2021/03/26 04:05:11;;;;;;;16.30;8.30;;;;;;;-0.50;65.51;100752.13;5072500;28;20063;-23
2021/03/26 04:08:01;;;;;;;17.77;9.90;;;;;;;-0.37;65.40;100791.22;5055684;28;20064;-22
2021/03/26 04:10:27;;;;;;;14.35;7.95;;;;;;;-0.29;64.47;100792.22;5075771;28;20087;-23
2021/03/26 04:12:57;;;;;;;16.48;9.00;;;;;;;-0.49;65.17;100798.31;5055676;28;20819;-23
2021/03/26 04:16:04;;;;;;;16.85;9.05;;;;;;;-0.22;64.87;100797.78;5072610;28;20055;-22
2021/03/26 04:18:54;;;;;;;16.48;8.88;;;;;;;-0.69;65.18;100784.28;5089641;28;20094;-22
2021/03/26 04:21:24;;;;;;;17.40;9.77;;;;;;;-0.88;65.90;100798.91;5064109;28;20032;-21
2021/03/26 04:24:11;;;;;;;16.33;8.30;;;;;;;-0.81;65.96;100800.03;5071979;28;20090;-22
2021/03/26 04:27:05;;;;;;;14.38;7.57;;;;;;;-0.57;64.66;100809.44;5057175;28;20036;-22
2021/03/26 04:29:45;;;;;;;20.85;10.85;;;;;;;-0.72;65.69;100795.00;5085437;28;20043;-22
2021/03/26 04:32:12;;;;;;;14.73;7.97;;;;;;;-0.78;65.99;100811.22;5090037;28;20035;-21
2021/03/26 04:34:39;;;;;;;14.23;7.38;;;;;;;-0.67;64.84;100793.66;5071787;28;20541;-21
2021/03/26 04:37:09;;;;;;;14.27;7.07;;;;;;;-1.13;66.46;100791.38;5071639;28;20024;-22
2021/03/26 04:39:42;;;;;;;21.98;9.32;;;;;;;-0.95;66.14;100789.06;5071360;28;20082;-22
2021/03/26 04:42:24;;;;;;;21.33;10.02;;;;;;;-0.87;66.69;100797.94;5071877;28;20032;-22
2021/03/26 04:45:02;;;;;;;14.77;7.47;;;;;;;-1.31;68.33;100812.88;5055962;28;20395;-23
2021/03/26 04:47:31;;;;;;;14.57;7.60;;;;;;;-1.16;67.97;100791.66;5072907;28;20102;-23
2021/03/26 04:50:10;;;;;;;14.75;8.02;;;;;;;-1.16;68.30;100783.81;5070894;28;20032;-22
2021/03/26 04:52:38;;;;;;;15.70;7.97;;;;;;;-1.13;67.52;100786.16;5055308;28;20032;-22
2021/03/26 04:55:16;;;;;;;16.85;8.35;;;;;;;-1.04;68.20;100808.97;5054926;28;20035;-23
2021/03/26 04:57:57;;;;;;;21.17;10.30;;;;;;;-1.20;68.84;100806.75;5089754;28;20093;-23
2021/03/26 05:00:30;;;;;;;17.08;8.50;;;;;;;-0.86;68.43;100815.31;5071115;28;20289;-22
2021/03/26 05:02:58;;;;;;;14.30;7.93;;;;;;;-0.88;67.84;100801.53;5070863;28;20129;-23
2021/03/26 05:05:24;;;;;;;12.70;7.53;;;;;;;-0.91;67.37;100796.53;5071041;28;20036;-22
2021/03/26 05:07:51;;;;;;;15.25;7.28;;;;;;;-1.24;68.58;100819.25;5071165;28;20820;-23
2021/03/26 05:10:20;;;;;;;14.48;8.10;;;;;;;-1.31;69.42;100823.34;5054619;28;20031;-22
2021/03/26 05:12:48;;;;;;;14.80;7.22;;;;;;;-1.32;69.09;100808.59;5071482;28;20830;-22
2021/03/26 05:15:20;;;;;;;16.25;7.70;;;;;;;-1.18;69.31;100843.28;5054238;28;20487;-21
2021/03/26 05:18:12;;;;;;;12.25;7.07;;;;;;;-1.22;69.72;100829.63;5070565;28;20101;-22
2021/03/26 05:20:56;;;;;;;11.20;6.53;;;;;;;-0.95;69.31;100838.81;5057260;28;20553;-22
2021/03/26 05:23:26;;;;;;;15.07;6.60;;;;;;;-1.11;69.45;100836.59;5088535;28;20039;-22
2021/03/26 05:25:51;;;;;;;12.73;6.40;;;;;;;-0.88;69.17;100832.94;5070822;28;20103;-23
2021/03/26 05:28:20;;;;;;;13.63;6.93;;;;;;;-0.84;68.86;100836.97;5088580;28;20111;-23
2021/03/26 05:30:46;;;;;;;12.50;7.13;;;;;;;-0.55;67.91;100822.41;5070988;28;20028;-23
2021/03/26 05:33:26;;;;;;;15.38;7.10;;;;;;;-0.19;66.40;100844.69;5088208;28;20398;-21
2021/03/26 05:35:54;;;;;;;13.45;6.32;;;;;;;-0.32;67.22;100849.31;5070730;28;20551;-22
2021/03/26 05:38:41;;;;;;;12.82;6.50;;;;;;;-0.02;66.41;100851.97;5070591;28;20040;-21
2021/03/26 05:41:31;;;;;;;13.85;6.22;;;;;;;0.11;66.95;100858.78;5073018;28;20914;-23
2021/03/26 05:44:31;;;;;;;11.60;6.43;;;;;;;0.25;65.79;100857.59;5088428;28;20075;-23
2021/03/26 05:47:18;;;;;;;11.57;6.60;;;;;;;0.11;66.64;100861.41;5072887;28;20031;-23
2021/03/26 05:50:26;;;;;;;18.90;8.57;;;;;;;0.32;67.35;100858.72;5088437;28;20040;-22
2021/03/26 05:52:54;;;;;;;24.85;11.30;;;;;;;0.46;68.32;100857.53;5070257;28;20024;-22
2021/03/26 05:55:28;;;;;;;25.95;10.82;;;;;;;0.63;67.94;100862.13;5069806;28;20032;-22
2021/03/26 05:58:03;;;;;;;20.20;10.95;;;;;;;1.05;65.27;100848.78;5055125;28;20027;-22
2021/03/26 06:01:07;;;;;;;21.33;12.27;;;;;;;1.70;62.59;100858.72;5069775;28;20035;-22
2021/03/26 06:04:01;;;;;;;18.42;11.32;;;;;;;1.70;63.83;100850.81;5024902;28;20084;-22
2021/03/26 06:06:32;;;;;;;16.15;9.57;;;;;;;1.70;62.60;100866.59;4984106;28;20037;-22
2021/03/26 06:09:06;;;;;;;22.70;13.02;;;;;;;1.60;64.49;100871.88;5068666;28;20055;-22
2021/03/26 06:11:50;;;;;;;31.38;18.27;;;;;;;2.01;65.11;100875.09;5087801;28;20028;-22
2021/03/26 06:14:53;;;;;;;20.70;12.32;;;;;;;1.62;66.05;100874.38;5087833;28;20055;-22
2021/03/26 06:17:56;;;;;;;17.95;10.18;;;;;;;1.92;65.28;100876.78;5087575;28;20049;-22
2021/03/26 06:20:40;;;;;;;19.20;11.25;;;;;;;2.24;65.08;100845.78;5049562;28;20044;-22
2021/03/26 06:23:40;;;;;;;22.63;13.20;;;;;;;2.70;64.90;100859.84;5088157;28;20024;-22
2021/03/26 06:26:05;;;;;;;27.33;14.98;;;;;;;2.94;63.91;100864.50;5087741;28;20589;-23
2021/03/26 06:28:46;;;;;;;29.02;15.32;;;;;;;3.05;63.57;100869.59;5087498;28;20063;-23
2021/03/26 06:31:38;;;;;;;27.08;14.10;;;;;;;2.54;63.88;100842.03;5088033;28;20111;-21
2021/03/26 06:34:10;;;;;;;19.88;12.07;;;;;;;2.50;62.88;100848.59;5070518;28;20115;-22
2021/03/26 06:36:46;;;;;;;21.60;13.57;;;;;;;2.67;63.54;100860.94;5087579;28;20035;-22
2021/03/26 06:39:20;;;;;;;25.55;15.02;;;;;;;3.22;62.38;100879.28;5070580;28;20028;-22
2021/03/26 06:42:04;;;;;;;25.13;13.45;;;;;;;3.41;61.11;100880.09;5069310;28;20464;-22
2021/03/26 06:44:48;;;;;;;22.17;13.13;;;;;;;3.34;61.50;100879.88;5087600;28;20035;-21
2021/03/26 06:47:17;;;;;;;31.30;18.10;;;;;;;3.54;61.56;100885.81;5087179;28;20021;-22
2021/03/26 06:50:16;;;;;;;41.45;20.55;;;;;;;3.74;61.02;100885.63;5069547;28;20780;-22
2021/03/26 06:53:06;;;;;;;27.45;15.75;;;;;;;3.78;59.38;100894.88;5087423;28;20035;-22
2021/03/26 06:55:50;;;;;;;28.33;15.93;;;;;;;4.17;59.45;100897.16;5087195;28;20085;-23
2021/03/26 06:58:35;;;;;;;28.05;15.18;;;;;;;4.26;58.87;100890.91;5087746;28;20103;-22
2021/03/26 07:01:29;;;;;;;22.60;15.10;;;;;;;4.55;60.18;100901.09;5087422;28;20028;-22
2021/03/26 07:04:15;;;;;;;20.25;12.48;;;;;;;4.97;57.79;100896.81;5069214;28;20143;-22
2021/03/26 07:07:12;;;;;;;23.42;14.05;;;;;;;4.95;58.12;100904.06;5087094;28;20028;-24
2021/03/26 07:09:46;;;;;;;21.85;12.80;;;;;;;5.00;54.79;100904.38;5087241;28;20036;-23
2021/03/26 07:12:30;;;;;;;20.40;11.90;;;;;;;4.74;56.57;100902.69;5087114;28;20154;-22
2021/03/26 07:15:01;;;;;;;21.38;11.18;;;;;;;4.81;55.21;100885.19;5087173;28;20077;-22
2021/03/26 07:17:39;;;;;;;19.23;11.20;;;;;;;5.17;54.65;100911.38;5052226;28;20059;-23
2021/03/26 07:20:07;;;;;;;21.33;11.83;;;;;;;5.14;53.49;100911.69;5087025;28;20142;-22
2021/03/26 07:22:54;;;;;;;22.38;13.10;;;;;;;5.15;54.70;100912.50;5086525;28;20250;-22
2021/03/26 07:25:51;;;;;;;20.95;13.07;;;;;;;5.52;55.26;100919.19;5086917;28;20503;-22
2021/03/26 07:28:36;;;;;;;20.10;12.52;;;;;;;5.62;54.68;100888.94;5086956;28;20556;-23
2021/03/26 07:31:17;;;;;;;18.67;10.85;;;;;;;6.29;52.69;100914.31;5071424;28;20035;-21
2021/03/26 07:34:12;;;;;;;160.82;70.38;;;;;;;6.18;52.58;100906.75;5052962;28;20064;-22
2021/03/26 07:36:53;;;;;;;67.13;32.47;;;;;;;6.20;54.38;100872.97;5081366;28;20043;-21
2021/03/26 07:39:31;;;;;;;18.83;11.40;;;;;;;6.31;52.48;100909.66;5053739;28;20043;-22
2021/03/26 07:42:02;;;;;;;15.50;9.77;;;;;;;6.12;53.07;100910.06;5070163;28;20025;-22
2021/03/26 07:45:02;;;;;;;18.52;10.40;;;;;;;6.22;50.54;100869.16;5086763;28;20063;-22
2021/03/26 07:47:34;;;;;;;16.70;11.32;;;;;;;6.74;53.66;100899.59;5054337;28;20025;-22
2021/03/26 07:50:08;;;;;;;17.15;10.15;;;;;;;6.84;51.98;100910.81;5086704;28;20036;-22
2021/03/26 07:52:41;;;;;;;16.98;9.80;;;;;;;6.78;50.77;100887.66;5087101;28;20036;-22
2021/03/26 07:55:20;;;;;;;18.45;10.27;;;;;;;7.29;48.77;100908.38;5052645;28;20031;-22
2021/03/26 07:57:49;;;;;;;15.13;9.32;;;;;;;7.54;49.73;100914.34;5068757;28;20032;-22
2021/03/26 08:00:23;;;;;;;;;;;;;;;7.75;49.64;100915.50;5087052;28;20127;-22
2021/03/26 08:02:54;;;;;;;17.23;9.52;;;;;;;7.97;48.02;100917.28;5087831;28;19938;-22
2021/03/26 08:05:31;;;;;;;16.48;9.85;;;;;;;8.28;47.17;100908.34;5090104;28;20020;-28
2021/03/26 08:08:13;;;;;;;17.63;9.95;;;;;;;8.25;47.00;100919.31;5072717;28;20039;-22
2021/03/26 08:11:13;;;;;;;17.30;10.38;;;;;;;8.41;47.24;100908.53;5072109;28;20035;-23
2021/03/26 08:13:56;;;;;;;16.17;9.32;;;;;;;8.36;46.42;100916.22;5090177;28;20122;-23
2021/03/26 08:16:27;;;;;;;16.92;11.23;;;;;;;8.44;46.54;100918.00;5073796;28;20035;-23
2021/03/26 08:19:16;;;;;;;17.73;10.43;;;;;;;8.70;47.31;100901.53;5090020;28;20059;-23
2021/03/26 08:21:44;;;;;;;17.75;9.88;;;;;;;8.92;44.32;100921.03;5072363;28;20465;-23
2021/03/26 08:24:58;;;;;;;17.65;10.18;;;;;;;8.76;46.46;100930.03;5089814;28;20047;-23
2021/03/26 08:27:26;;;;;;;30.75;16.90;;;;;;;9.10;47.50;100922.47;5075681;28;20040;-22
2021/03/26 08:30:10;;;;;;;15.55;9.35;;;;;;;9.14;43.71;100924.56;5089919;28;20032;-22
2021/03/26 08:32:57;;;;;;;13.25;7.63;;;;;;;9.01;41.42;100913.75;5090193;28;20077;-23
2021/03/26 08:35:52;;;;;;;12.95;7.93;;;;;;;8.95;42.94;100919.84;5089915;28;20047;-23
2021/03/26 08:38:41;;;;;;;15.55;8.55;;;;;;;9.25;43.33;100909.94;5075987;28;20048;-22
2021/03/26 08:41:16;;;;;;;15.57;8.77;;;;;;;9.39;42.10;100910.91;5089073;28;20503;-23
2021/03/26 08:43:42;;;;;;;16.45;9.02;;;;;;;9.49;41.91;100915.91;5089678;28;20161;-23
2021/03/26 08:46:17;;;;;;;16.33;8.88;;;;;;;9.50;41.80;100907.75;5054693;28;20111;-23
2021/03/26 08:48:44;;;;;;;14.07;8.05;;;;;;;9.50;41.70;100923.72;5090037;28;20081;-23
2021/03/26 08:51:47;;;;;;;12.68;8.13;;;;;;;9.79;45.12;100917.41;5071659;28;20028;-24
2021/03/26 08:54:13;;;;;;;14.25;8.20;;;;;;;10.03;42.72;100924.16;5089270;28;20522;-23
2021/03/26 08:57:02;;;;;;;12.30;7.78;;;;;;;10.04;40.74;100917.78;5089549;28;20036;-23
2021/03/26 08:59:50;;;;;;;16.30;9.40;;;;;;;10.27;42.06;100919.38;5088961;28;20039;-23
2021/03/26 09:02:44;;;;;;;16.63;8.95;;;;;;;10.31;42.06;100928.66;5073710;28;20078;-23
2021/03/26 09:05:41;;;;;;;14.52;9.32;;;;;;;10.34;40.67;100928.28;5065628;28;20064;-23
2021/03/26 09:08:12;;;;;;;15.63;10.02;;;;;;;10.63;39.13;100926.38;5071133;28;20038;-23
2021/03/26 09:10:57;;;;;;;15.18;10.10;;;;;;;10.89;42.60;100927.50;5089126;28;20032;-22
2021/03/26 09:13:34;;;;;;;19.35;11.32;;;;;;;10.50;40.35;100912.97;5088589;28;20035;-22
2021/03/26 09:16:06;;;;;;;16.75;9.48;;;;;;;11.00;38.72;100902.91;5088733;28;20860;-22
2021/03/26 09:18:49;;;;;;;13.88;8.35;;;;;;;11.15;39.05;100895.53;5070922;28;20039;-22
2021/03/26 09:21:44;;;;;;;16.10;9.35;;;;;;;11.61;39.95;100918.81;5054729;28;20186;-22
2021/03/26 09:24:19;;;;;;;14.48;9.43;;;;;;;11.51;37.57;100921.09;5073627;28;20056;-23
2021/03/26 09:26:59;;;;;;;12.25;8.02;;;;;;;11.43;37.54;100919.41;5088785;28;20103;-23
2021/03/26 09:29:32;;;;;;;13.60;8.52;;;;;;;11.50;38.07;100911.41;5070440;28;20543;-22
2021/03/26 09:32:11;;;;;;;14.23;9.40;;;;;;;11.51;38.84;100920.25;5070530;28;20032;-23
2021/03/26 09:34:39;;;;;;;13.88;8.55;;;;;;;11.64;38.60;100910.38;5055727;28;20024;-22
2021/03/26 09:37:07;;;;;;;12.77;8.82;;;;;;;11.99;35.26;100920.91;5053895;28;20508;-22
2021/03/26 09:39:34;;;;;;;15.07;9.32;;;;;;;12.05;37.54;100897.84;5088227;28;20032;-22
2021/03/26 09:42:13;;;;;;;14.68;7.85;;;;;;;11.77;35.49;100901.56;5053794;28;20484;-22
2021/03/26 09:44:46;;;;;;;13.23;8.43;;;;;;;12.08;36.00;100920.72;5072106;28;20031;-22
2021/03/26 09:47:40;;;;;;;12.25;8.35;;;;;;;12.58;37.81;100911.09;5070127;28;20040;-22
2021/03/26 09:50:17;;;;;;;15.27;9.30;;;;;;;13.26;36.14;100912.44;5070380;28;20032;-22
2021/03/26 09:52:43;;;;;;;11.38;7.30;;;;;;;12.63;35.87;100911.31;5088327;28;20020;-22
2021/03/26 09:55:09;;;;;;;13.23;7.97;;;;;;;12.66;35.30;100896.66;5070174;28;20082;-22
2021/03/26 09:58:17;;;;;;;13.73;7.50;;;;;;;12.88;35.05;100899.06;5087950;28;20514;-22
2021/03/26 10:00:49;;;;;;;12.73;7.88;;;;;;;12.90;34.78;100892.44;5041441;28;20058;-23
2021/03/26 10:03:39;;;;;;;11.95;8.07;;;;;;;12.68;34.19;100891.91;5087912;28;20054;-22
2021/03/26 10:06:42;;;;;;;13.25;8.38;;;;;;;12.62;34.94;100898.13;5088289;28;20569;-22
2021/03/26 10:12:16;;;;;;;10.50;6.43;;;;;;;12.93;33.57;100885.84;5072994;28;20062;-22
2021/03/26 10:14:57;;;;;;;10.82;7.25;;;;;;;12.98;32.07;100888.69;5053086;28;20040;-22
2021/03/26 10:17:41;;;;;;;13.27;8.05;;;;;;;13.24;32.78;100893.91;5087661;28;20487;-22
2021/03/26 10:20:07;;;;;;;10.68;6.15;;;;;;;13.73;32.67;100886.16;5087628;28;20451;-22
2021/03/26 10:22:39;;;;;;;22.95;13.18;;;;;;;14.15;30.25;100888.22;5087676;28;20071;-21
2021/03/26 10:25:26;;;;;;;15.25;7.50;;;;;;;13.84;31.86;100877.38;5069935;28;20067;-22
2021/03/26 10:28:12;;;;;;;13.43;7.82;;;;;;;13.96;30.55;100885.50;5045743;28;20040;-23
2021/03/26 10:30:51;;;;;;;9.98;5.75;;;;;;;13.89;32.59;100890.09;5070781;28;20123;-22
2021/03/26 10:33:16;;;;;;;9.80;6.03;;;;;;;13.99;30.71;100889.59;5069117;28;20466;-22
2021/03/26 10:35:55;;;;;;;9.40;5.88;;;;;;;13.98;29.34;100888.78;5052715;28;20036;-23
2021/03/26 10:38:28;;;;;;;10.75;6.13;;;;;;;13.66;32.20;100875.47;5069730;28;20059;-22
2021/03/26 10:41:04;;;;;;;11.10;6.60;;;;;;;13.97;31.75;100881.78;5070152;28;20032;-22
2021/03/26 10:43:33;;;;;;;14.30;6.60;;;;;;;14.33;31.78;100890.91;5053740;28;20024;-22
2021/03/26 10:46:14;;;;;;;26.23;15.15;;;;;;;14.52;31.69;100891.72;5069213;28;20036;-22
2021/03/26 10:48:49;;;;;;;8.60;5.60;;;;;;;14.59;27.78;100862.16;5069154;28;20088;-22
2021/03/26 10:51:26;;;;;;;10.32;4.85;;;;;;;14.99;26.69;100867.00;5052341;28;20054;-22
2021/03/26 10:54:19;;;;;;;9.35;5.57;;;;;;;14.84;27.91;100875.47;5069422;28;20090;-22
2021/03/26 10:56:53;;;;;;;8.00;5.03;;;;;;;14.46;28.17;100880.03;5053422;28;20035;-22
2021/03/26 10:59:28;;;;;;;8.57;4.97;;;;;;;14.52;27.51;100885.53;5086920;28;20050;-22
2021/03/26 11:01:54;;;;;;;8.88;4.68;;;;;;;14.67;27.35;100872.59;5087320;28;20036;-22
2021/03/26 11:04:38;;;;;;;6.70;3.63;;;;;;;14.34;24.83;100871.06;5069187;28;20032;-22
2021/03/26 11:07:09;;;;;;;8.43;5.32;;;;;;;15.18;25.39;100865.06;5070287;28;20028;-22
2021/03/26 11:09:41;;;;;;;8.70;4.60;;;;;;;16.06;25.59;100861.53;5086983;28;20085;-22
2021/03/26 11:12:15;;;;;;;8.98;4.55;;;;;;;16.10;23.48;100861.91;5069099;28;20043;-22
2021/03/26 11:14:57;;;;;;;211.93;97.30;;;;;;;16.70;24.04;100858.00;5069056;28;20492;-22
2021/03/26 11:17:33;;;;;;;11.75;6.63;;;;;;;16.76;24.51;100853.53;5068743;28;20032;-22
2021/03/26 11:20:28;;;;;;;6.75;4.10;;;;;;;16.25;23.71;100843.38;5070208;28;20027;-22
2021/03/26 11:22:57;;;;;;;11.77;5.82;;;;;;;15.22;22.67;100850.94;5071285;28;20063;-23
2021/03/26 11:25:31;;;;;;;9.18;5.15;;;;;;;15.91;23.99;100842.38;5086589;28;20028;-22
2021/03/26 11:27:56;;;;;;;11.68;5.70;;;;;;;16.48;25.58;100847.06;5070659;28;20510;-22
2021/03/26 11:30:33;;;;;;;8.68;4.65;;;;;;;16.24;22.95;100819.38;5088595;28;20119;-23
2021/03/26 11:33:04;;;;;;;8.60;4.50;;;;;;;15.82;21.84;100839.22;5070678;28;20860;-22
2021/03/26 11:35:33;;;;;;;16.90;9.82;;;;;;;16.45;24.20;100832.22;5054170;28;20024;-22
2021/03/26 11:38:01;;;;;;;41.63;27.40;;;;;;;17.03;21.59;100813.34;5055218;28;20452;-22
2021/03/26 11:40:41;;;;;;;9.17;5.03;;;;;;;17.37;23.68;100832.25;5058106;28;20027;-22
2021/03/26 11:43:13;;;;;;;11.32;7.53;;;;;;;17.61;20.22;100822.94;5075138;28;20028;-22
2021/03/26 11:45:59;;;;;;;6.43;3.65;;;;;;;17.74;18.77;100820.94;5074157;28;20038;-22
2021/03/26 11:48:28;;;;;;;7.57;3.67;;;;;;;17.93;17.77;100827.72;5074060;28;20058;-22
2021/03/26 11:50:58;;;;;;;;;;;;;;;17.87;20.13;100826.00;5074799;28;20074;-22
2021/03/26 11:53:29;;;;;;;7.75;3.85;;;;;;;17.78;17.66;100822.88;5073735;28;19917;-22
2021/03/26 11:56:03;;;;;;;8.93;4.60;;;;;;;17.96;22.80;100802.94;5092152;28;20027;-23
2021/03/26 11:58:31;;;;;;;6.88;3.90;;;;;;;17.40;21.49;100791.31;5057624;28;20036;-22
2021/03/26 12:01:03;;;;;;;7.13;4.07;;;;;;;17.39;22.06;100808.56;5074014;28;20448;-22
2021/03/26 12:04:07;;;;;;;12.63;6.93;;;;;;;17.64;20.43;100811.63;5058040;28;20056;-22